sensor_id;sensor_type;location;lat;lon;timestamp;temperature;humidity
76293;DHT22;67256;51.154;4.164;2023-06-14T00:00:58;22.40;52.50
76293;DHT22;67256;51.154;4.164;2023-06-14T00:03:25;22.60;51.80
76293;DHT22;67256;51.154;4.164;2023-06-14T00:05:51;22.50;51.90
76293;DHT22;67256;51.154;4.164;2023-06-14T00:08:17;22.40;52.10
76293;DHT22;67256;51.154;4.164;2023-06-14T00:10:44;22.20;52.50
76293;DHT22;67256;51.154;4.164;2023-06-14T00:13:11;22.20;52.50
76293;DHT22;67256;51.154;4.164;2023-06-14T00:15:37;22.50;51.70
76293;DHT22;67256;51.154;4.164;2023-06-14T00:18:03;22.60;51.40
76293;DHT22;67256;51.154;4.164;2023-06-14T00:20:31;22.60;51.10
76293;DHT22;67256;51.154;4.164;2023-06-14T00:23:01;22.80;50.60
76293;DHT22;67256;51.154;4.164;2023-06-14T00:25:27;22.90;50.30
76293;DHT22;67256;51.154;4.164;2023-06-14T00:27:54;22.50;51.40
76293;DHT22;67256;51.154;4.164;2023-06-14T00:30:20;22.20;52.30
76293;DHT22;67256;51.154;4.164;2023-06-14T00:32:47;22.10;52.50
76293;DHT22;67256;51.154;4.164;2023-06-14T00:35:13;22.20;52.10
76293;DHT22;67256;51.154;4.164;2023-06-14T00:37:39;22.20;52.10
76293;DHT22;67256;51.154;4.164;2023-06-14T00:40:05;22.30;51.80
76293;DHT22;67256;51.154;4.164;2023-06-14T00:42:32;22.30;52.00
76293;DHT22;67256;51.154;4.164;2023-06-14T00:44:57;22.20;52.20
76293;DHT22;67256;51.154;4.164;2023-06-14T00:47:23;22.10;52.10
76293;DHT22;67256;51.154;4.164;2023-06-14T00:49:53;22.10;52.20
76293;DHT22;67256;51.154;4.164;2023-06-14T00:52:19;21.90;52.60
76293;DHT22;67256;51.154;4.164;2023-06-14T00:54:46;21.90;52.80
76293;DHT22;67256;51.154;4.164;2023-06-14T00:57:12;22.10;52.30
76293;DHT22;67256;51.154;4.164;2023-06-14T00:59:46;22.00;52.00
76293;DHT22;67256;51.154;4.164;2023-06-14T01:02:13;21.80;52.70
76293;DHT22;67256;51.154;4.164;2023-06-14T01:04:41;21.80;52.60
76293;DHT22;67256;51.154;4.164;2023-06-14T01:10:26;21.70;53.00
76293;DHT22;67256;51.154;4.164;2023-06-14T01:13:08;21.60;53.20
76293;DHT22;67256;51.154;4.164;2023-06-14T01:15:37;21.70;52.60
76293;DHT22;67256;51.154;4.164;2023-06-14T01:18:04;21.70;52.20
76293;DHT22;67256;51.154;4.164;2023-06-14T01:20:32;21.80;51.30
76293;DHT22;67256;51.154;4.164;2023-06-14T01:22:59;21.80;50.90
76293;DHT22;67256;51.154;4.164;2023-06-14T01:25:25;21.80;50.20
76293;DHT22;67256;51.154;4.164;2023-06-14T01:28:04;21.70;50.60
76293;DHT22;67256;51.154;4.164;2023-06-14T01:30:44;21.50;50.90
76293;DHT22;67256;51.154;4.164;2023-06-14T01:33:22;21.30;51.30
76293;DHT22;67256;51.154;4.164;2023-06-14T01:35:51;21.30;51.00
76293;DHT22;67256;51.154;4.164;2023-06-14T01:38:22;21.40;50.00
76293;DHT22;67256;51.154;4.164;2023-06-14T01:40:49;21.40;49.70
76293;DHT22;67256;51.154;4.164;2023-06-14T01:43:17;21.50;49.10
76293;DHT22;67256;51.154;4.164;2023-06-14T01:45:46;21.50;48.90
76293;DHT22;67256;51.154;4.164;2023-06-14T01:48:13;21.40;48.70
76293;DHT22;67256;51.154;4.164;2023-06-14T01:50:39;21.50;48.50
76293;DHT22;67256;51.154;4.164;2023-06-14T01:53:08;21.40;48.70
76293;DHT22;67256;51.154;4.164;2023-06-14T01:55:34;21.40;48.60
76293;DHT22;67256;51.154;4.164;2023-06-14T01:58:03;21.20;48.70
76293;DHT22;67256;51.154;4.164;2023-06-14T02:00:29;21.20;48.40
76293;DHT22;67256;51.154;4.164;2023-06-14T02:02:55;21.30;48.30
76293;DHT22;67256;51.154;4.164;2023-06-14T02:05:21;21.50;47.30
76293;DHT22;67256;51.154;4.164;2023-06-14T02:07:47;21.50;46.90
76293;DHT22;67256;51.154;4.164;2023-06-14T02:10:13;21.50;46.50
76293;DHT22;67256;51.154;4.164;2023-06-14T02:12:39;21.60;46.60
76293;DHT22;67256;51.154;4.164;2023-06-14T02:15:05;21.50;46.10
76293;DHT22;67256;51.154;4.164;2023-06-14T02:17:32;21.50;45.70
76293;DHT22;67256;51.154;4.164;2023-06-14T02:19:58;21.30;46.30
76293;DHT22;67256;51.154;4.164;2023-06-14T02:22:25;21.30;46.10
76293;DHT22;67256;51.154;4.164;2023-06-14T02:24:50;21.40;45.70
76293;DHT22;67256;51.154;4.164;2023-06-14T02:27:17;21.30;45.50
76293;DHT22;67256;51.154;4.164;2023-06-14T02:29:43;21.50;44.70
76293;DHT22;67256;51.154;4.164;2023-06-14T02:32:09;21.60;44.40
76293;DHT22;67256;51.154;4.164;2023-06-14T02:34:35;21.40;44.60
76293;DHT22;67256;51.154;4.164;2023-06-14T02:37:01;21.30;44.60
76293;DHT22;67256;51.154;4.164;2023-06-14T02:39:30;21.30;44.30
76293;DHT22;67256;51.154;4.164;2023-06-14T02:41:56;21.30;44.10
76293;DHT22;67256;51.154;4.164;2023-06-14T02:44:26;21.40;43.50
76293;DHT22;67256;51.154;4.164;2023-06-14T02:46:55;21.30;43.70
76293;DHT22;67256;51.154;4.164;2023-06-14T02:49:21;21.30;43.70
76293;DHT22;67256;51.154;4.164;2023-06-14T02:51:48;21.40;43.10
76293;DHT22;67256;51.154;4.164;2023-06-14T02:54:14;21.30;43.20
76293;DHT22;67256;51.154;4.164;2023-06-14T02:56:40;21.20;42.90
76293;DHT22;67256;51.154;4.164;2023-06-14T02:59:06;21.20;43.30
76293;DHT22;67256;51.154;4.164;2023-06-14T03:01:32;21.20;43.10
76293;DHT22;67256;51.154;4.164;2023-06-14T03:04:09;21.30;42.90
76293;DHT22;67256;51.154;4.164;2023-06-14T03:06:35;21.40;42.20
76293;DHT22;67256;51.154;4.164;2023-06-14T03:09:02;21.20;42.50
76293;DHT22;67256;51.154;4.164;2023-06-14T03:11:31;21.10;42.60
76293;DHT22;67256;51.154;4.164;2023-06-14T03:13:57;21.10;42.30
76293;DHT22;67256;51.154;4.164;2023-06-14T03:16:23;21.00;42.80
76293;DHT22;67256;51.154;4.164;2023-06-14T03:18:53;20.80;43.00
76293;DHT22;67256;51.154;4.164;2023-06-14T03:21:19;20.90;42.60
76293;DHT22;67256;51.154;4.164;2023-06-14T03:23:48;20.90;42.60
76293;DHT22;67256;51.154;4.164;2023-06-14T03:26:14;20.80;42.60
76293;DHT22;67256;51.154;4.164;2023-06-14T03:28:46;20.80;42.30
76293;DHT22;67256;51.154;4.164;2023-06-14T03:31:15;20.80;42.40
76293;DHT22;67256;51.154;4.164;2023-06-14T03:33:42;20.80;42.10
76293;DHT22;67256;51.154;4.164;2023-06-14T03:36:08;20.70;42.10
76293;DHT22;67256;51.154;4.164;2023-06-14T03:38:34;20.90;42.10
76293;DHT22;67256;51.154;4.164;2023-06-14T03:41:00;21.00;41.90
76293;DHT22;67256;51.154;4.164;2023-06-14T03:43:27;21.10;41.20
76293;DHT22;67256;51.154;4.164;2023-06-14T03:45:53;21.10;41.40
76293;DHT22;67256;51.154;4.164;2023-06-14T03:48:18;21.10;41.10
76293;DHT22;67256;51.154;4.164;2023-06-14T03:50:44;21.10;41.30
76293;DHT22;67256;51.154;4.164;2023-06-14T03:53:10;21.00;41.30
76293;DHT22;67256;51.154;4.164;2023-06-14T03:55:36;21.00;41.60
76293;DHT22;67256;51.154;4.164;2023-06-14T03:58:03;20.80;42.00
76293;DHT22;67256;51.154;4.164;2023-06-14T04:00:29;20.80;42.10
76293;DHT22;67256;51.154;4.164;2023-06-14T04:02:55;20.70;42.40
76293;DHT22;67256;51.154;4.164;2023-06-14T04:05:21;20.50;42.90
76293;DHT22;67256;51.154;4.164;2023-06-14T04:07:47;20.40;43.20
76293;DHT22;67256;51.154;4.164;2023-06-14T04:10:15;20.70;42.60
76293;DHT22;67256;51.154;4.164;2023-06-14T04:12:41;20.50;43.00
76293;DHT22;67256;51.154;4.164;2023-06-14T04:15:08;20.70;42.70
76293;DHT22;67256;51.154;4.164;2023-06-14T04:17:34;20.70;42.30
76293;DHT22;67256;51.154;4.164;2023-06-14T04:20:01;20.80;42.50
76293;DHT22;67256;51.154;4.164;2023-06-14T04:22:29;20.80;42.50
76293;DHT22;67256;51.154;4.164;2023-06-14T04:24:56;21.00;42.30
76293;DHT22;67256;51.154;4.164;2023-06-14T04:27:26;21.10;41.70
76293;DHT22;67256;51.154;4.164;2023-06-14T04:29:53;21.00;41.90
76293;DHT22;67256;51.154;4.164;2023-06-14T04:32:26;21.20;41.80
76293;DHT22;67256;51.154;4.164;2023-06-14T04:34:55;21.20;41.90
76293;DHT22;67256;51.154;4.164;2023-06-14T04:37:21;21.20;41.80
76293;DHT22;67256;51.154;4.164;2023-06-14T04:39:50;21.20;42.10
76293;DHT22;67256;51.154;4.164;2023-06-14T04:42:17;21.20;42.20
76293;DHT22;67256;51.154;4.164;2023-06-14T04:44:46;21.10;42.40
76293;DHT22;67256;51.154;4.164;2023-06-14T04:47:14;21.30;42.20
76293;DHT22;67256;51.154;4.164;2023-06-14T04:49:41;21.30;41.90
76293;DHT22;67256;51.154;4.164;2023-06-14T04:52:07;21.30;42.20
76293;DHT22;67256;51.154;4.164;2023-06-14T04:54:36;21.20;42.60
76293;DHT22;67256;51.154;4.164;2023-06-14T04:57:07;21.20;42.60
76293;DHT22;67256;51.154;4.164;2023-06-14T04:59:33;21.30;42.90
76293;DHT22;67256;51.154;4.164;2023-06-14T05:02:01;21.40;42.60
76293;DHT22;67256;51.154;4.164;2023-06-14T05:04:27;21.30;42.70
76293;DHT22;67256;51.154;4.164;2023-06-14T05:06:54;21.40;43.00
76293;DHT22;67256;51.154;4.164;2023-06-14T05:09:22;21.30;43.20
76293;DHT22;67256;51.154;4.164;2023-06-14T05:11:48;21.50;42.70
76293;DHT22;67256;51.154;4.164;2023-06-14T05:14:16;21.60;42.60
76293;DHT22;67256;51.154;4.164;2023-06-14T05:16:43;21.60;42.90
76293;DHT22;67256;51.154;4.164;2023-06-14T05:19:09;21.70;42.70
76293;DHT22;67256;51.154;4.164;2023-06-14T05:21:36;21.70;42.50
76293;DHT22;67256;51.154;4.164;2023-06-14T05:24:03;21.80;43.10
76293;DHT22;67256;51.154;4.164;2023-06-14T05:26:28;21.90;42.60
76293;DHT22;67256;51.154;4.164;2023-06-14T05:28:56;21.60;43.30
76293;DHT22;67256;51.154;4.164;2023-06-14T05:31:27;21.90;43.60
76293;DHT22;67256;51.154;4.164;2023-06-14T05:33:54;21.80;43.00
76293;DHT22;67256;51.154;4.164;2023-06-14T05:36:20;21.90;42.90
76293;DHT22;67256;51.154;4.164;2023-06-14T05:38:49;21.90;43.70
76293;DHT22;67256;51.154;4.164;2023-06-14T05:41:16;22.10;43.30
76293;DHT22;67256;51.154;4.164;2023-06-14T05:43:42;22.10;43.30
76293;DHT22;67256;51.154;4.164;2023-06-14T05:46:10;22.50;43.10
76293;DHT22;67256;51.154;4.164;2023-06-14T05:48:36;22.60;42.40
76293;DHT22;67256;51.154;4.164;2023-06-14T05:51:02;22.50;42.70
76293;DHT22;67256;51.154;4.164;2023-06-14T05:53:28;22.30;43.10
76293;DHT22;67256;51.154;4.164;2023-06-14T05:55:54;22.20;43.70
76293;DHT22;67256;51.154;4.164;2023-06-14T05:58:21;22.30;43.40
76293;DHT22;67256;51.154;4.164;2023-06-14T06:00:47;22.40;43.40
76293;DHT22;67256;51.154;4.164;2023-06-14T06:03:13;22.60;42.90
76293;DHT22;67256;51.154;4.164;2023-06-14T06:05:39;22.70;42.00
76293;DHT22;67256;51.154;4.164;2023-06-14T06:08:05;22.80;42.80
76293;DHT22;67256;51.154;4.164;2023-06-14T06:10:31;23.00;42.10
76293;DHT22;67256;51.154;4.164;2023-06-14T06:12:57;22.90;42.70
76293;DHT22;67256;51.154;4.164;2023-06-14T06:15:23;22.80;42.70
76293;DHT22;67256;51.154;4.164;2023-06-14T06:17:50;22.90;42.40
76293;DHT22;67256;51.154;4.164;2023-06-14T06:20:16;22.90;42.30
76293;DHT22;67256;51.154;4.164;2023-06-14T06:22:43;23.00;42.30
76293;DHT22;67256;51.154;4.164;2023-06-14T06:25:08;23.20;42.00
76293;DHT22;67256;51.154;4.164;2023-06-14T06:27:34;23.10;42.80
76293;DHT22;67256;51.154;4.164;2023-06-14T06:30:03;23.10;42.50
76293;DHT22;67256;51.154;4.164;2023-06-14T06:32:29;23.20;42.70
76293;DHT22;67256;51.154;4.164;2023-06-14T06:34:54;22.90;42.80
76293;DHT22;67256;51.154;4.164;2023-06-14T06:37:20;22.80;44.70
76293;DHT22;67256;51.154;4.164;2023-06-14T06:39:46;22.90;43.90
76293;DHT22;67256;51.154;4.164;2023-06-14T06:42:13;23.10;43.80
76293;DHT22;67256;51.154;4.164;2023-06-14T06:44:38;23.30;42.80
76293;DHT22;67256;51.154;4.164;2023-06-14T06:47:04;23.20;42.70
76293;DHT22;67256;51.154;4.164;2023-06-14T06:49:30;23.20;42.70
76293;DHT22;67256;51.154;4.164;2023-06-14T06:52:02;22.90;42.00
76293;DHT22;67256;51.154;4.164;2023-06-14T06:54:29;23.00;41.90
76293;DHT22;67256;51.154;4.164;2023-06-14T06:56:55;23.20;41.70
76293;DHT22;67256;51.154;4.164;2023-06-14T06:59:21;23.00;41.70
76293;DHT22;67256;51.154;4.164;2023-06-14T07:01:47;23.10;41.30
76293;DHT22;67256;51.154;4.164;2023-06-14T07:04:13;23.20;41.10
76293;DHT22;67256;51.154;4.164;2023-06-14T07:06:39;23.30;41.70
76293;DHT22;67256;51.154;4.164;2023-06-14T07:09:05;23.40;41.80
76293;DHT22;67256;51.154;4.164;2023-06-14T07:11:33;23.50;41.90
76293;DHT22;67256;51.154;4.164;2023-06-14T07:13:59;23.60;41.90
76293;DHT22;67256;51.154;4.164;2023-06-14T07:16:25;23.60;41.80
76293;DHT22;67256;51.154;4.164;2023-06-14T07:18:51;23.60;42.60
76293;DHT22;67256;51.154;4.164;2023-06-14T07:21:17;23.40;41.80
76293;DHT22;67256;51.154;4.164;2023-06-14T07:23:43;23.50;41.70
76293;DHT22;67256;51.154;4.164;2023-06-14T07:26:09;23.20;42.90
76293;DHT22;67256;51.154;4.164;2023-06-14T07:28:35;22.90;44.20
76293;DHT22;67256;51.154;4.164;2023-06-14T07:31:01;22.70;44.40
76293;DHT22;67256;51.154;4.164;2023-06-14T07:33:28;22.60;44.40
76293;DHT22;67256;51.154;4.164;2023-06-14T07:35:54;22.70;45.00
76293;DHT22;67256;51.154;4.164;2023-06-14T07:38:20;22.50;44.60
76293;DHT22;67256;51.154;4.164;2023-06-14T07:40:46;22.50;44.90
76293;DHT22;67256;51.154;4.164;2023-06-14T07:43:12;22.40;44.40
76293;DHT22;67256;51.154;4.164;2023-06-14T07:45:38;22.70;44.40
76293;DHT22;67256;51.154;4.164;2023-06-14T07:48:04;22.80;44.00
76293;DHT22;67256;51.154;4.164;2023-06-14T07:50:29;22.60;45.50
76293;DHT22;67256;51.154;4.164;2023-06-14T07:52:56;22.50;44.90
76293;DHT22;67256;51.154;4.164;2023-06-14T07:55:22;22.40;46.20
76293;DHT22;67256;51.154;4.164;2023-06-14T07:57:48;22.50;45.40
76293;DHT22;67256;51.154;4.164;2023-06-14T08:00:14;22.60;45.00
76293;DHT22;67256;51.154;4.164;2023-06-14T08:02:44;22.70;43.60
76293;DHT22;67256;51.154;4.164;2023-06-14T08:05:11;22.80;44.40
76293;DHT22;67256;51.154;4.164;2023-06-14T08:07:37;23.00;43.50
76293;DHT22;67256;51.154;4.164;2023-06-14T08:10:04;23.10;44.00
76293;DHT22;67256;51.154;4.164;2023-06-14T08:12:31;23.20;42.20
76293;DHT22;67256;51.154;4.164;2023-06-14T08:14:56;23.30;42.70
76293;DHT22;67256;51.154;4.164;2023-06-14T08:17:22;23.50;41.50
76293;DHT22;67256;51.154;4.164;2023-06-14T08:19:48;23.60;41.40
76293;DHT22;67256;51.154;4.164;2023-06-14T08:22:13;23.70;42.00
76293;DHT22;67256;51.154;4.164;2023-06-14T08:24:39;23.70;41.30
76293;DHT22;67256;51.154;4.164;2023-06-14T08:27:06;23.80;41.10
76293;DHT22;67256;51.154;4.164;2023-06-14T08:29:32;23.80;40.80
76293;DHT22;67256;51.154;4.164;2023-06-14T08:31:58;23.90;40.20
76293;DHT22;67256;51.154;4.164;2023-06-14T08:34:24;23.90;39.90
76293;DHT22;67256;51.154;4.164;2023-06-14T08:36:50;23.90;40.30
76293;DHT22;67256;51.154;4.164;2023-06-14T08:39:16;24.00;41.50
76293;DHT22;67256;51.154;4.164;2023-06-14T08:41:45;24.10;39.60
76293;DHT22;67256;51.154;4.164;2023-06-14T08:44:12;24.10;40.20
76293;DHT22;67256;51.154;4.164;2023-06-14T08:46:38;24.10;41.40
76293;DHT22;67256;51.154;4.164;2023-06-14T08:49:04;24.10;41.90
76293;DHT22;67256;51.154;4.164;2023-06-14T08:51:32;24.20;40.90
76293;DHT22;67256;51.154;4.164;2023-06-14T08:54:03;24.20;42.10
76293;DHT22;67256;51.154;4.164;2023-06-14T08:56:30;24.30;41.70
76293;DHT22;67256;51.154;4.164;2023-06-14T08:58:59;24.30;42.40
76293;DHT22;67256;51.154;4.164;2023-06-14T09:01:34;24.30;42.10
76293;DHT22;67256;51.154;4.164;2023-06-14T09:04:00;24.40;40.50
76293;DHT22;67256;51.154;4.164;2023-06-14T09:06:27;24.30;41.80
76293;DHT22;67256;51.154;4.164;2023-06-14T09:08:55;24.30;41.30
76293;DHT22;67256;51.154;4.164;2023-06-14T09:11:23;24.40;40.80
76293;DHT22;67256;51.154;4.164;2023-06-14T09:13:50;24.50;40.20
76293;DHT22;67256;51.154;4.164;2023-06-14T09:16:16;24.50;40.40
76293;DHT22;67256;51.154;4.164;2023-06-14T09:18:44;24.50;40.30
76293;DHT22;67256;51.154;4.164;2023-06-14T09:21:13;24.40;40.60
76293;DHT22;67256;51.154;4.164;2023-06-14T09:23:41;24.50;41.00
76293;DHT22;67256;51.154;4.164;2023-06-14T09:26:12;24.40;40.70
76293;DHT22;67256;51.154;4.164;2023-06-14T09:28:45;24.30;40.80
76293;DHT22;67256;51.154;4.164;2023-06-14T09:31:15;24.30;40.60
76293;DHT22;67256;51.154;4.164;2023-06-14T09:33:46;24.30;41.00
76293;DHT22;67256;51.154;4.164;2023-06-14T09:36:21;24.30;40.60
76293;DHT22;67256;51.154;4.164;2023-06-14T09:39:01;24.30;40.70
76293;DHT22;67256;51.154;4.164;2023-06-14T09:41:38;24.30;39.80
76293;DHT22;67256;51.154;4.164;2023-06-14T09:44:06;24.30;40.80
76293;DHT22;67256;51.154;4.164;2023-06-14T09:46:33;24.30;40.20
76293;DHT22;67256;51.154;4.164;2023-06-14T09:48:59;24.40;40.50
76293;DHT22;67256;51.154;4.164;2023-06-14T09:51:26;24.30;40.60
76293;DHT22;67256;51.154;4.164;2023-06-14T09:53:53;24.40;37.50
76293;DHT22;67256;51.154;4.164;2023-06-14T09:56:28;24.40;37.00
76293;DHT22;67256;51.154;4.164;2023-06-14T09:58:56;24.40;38.20
76293;DHT22;67256;51.154;4.164;2023-06-14T10:01:24;24.40;38.80
76293;DHT22;67256;51.154;4.164;2023-06-14T10:04:13;24.50;38.00
76293;DHT22;67256;51.154;4.164;2023-06-14T10:06:43;24.50;36.80
76293;DHT22;67256;51.154;4.164;2023-06-14T10:09:11;24.50;37.60
76293;DHT22;67256;51.154;4.164;2023-06-14T10:11:38;24.30;38.80
76293;DHT22;67256;51.154;4.164;2023-06-14T10:14:11;24.20;39.60
76293;DHT22;67256;51.154;4.164;2023-06-14T10:16:45;24.40;38.10
76293;DHT22;67256;51.154;4.164;2023-06-14T10:22:08;24.60;37.40
76293;DHT22;67256;51.154;4.164;2023-06-14T10:24:43;24.70;37.50
76293;DHT22;67256;51.154;4.164;2023-06-14T10:27:09;24.90;38.40
76293;DHT22;67256;51.154;4.164;2023-06-14T10:32:18;24.90;37.20
76293;DHT22;67256;51.154;4.164;2023-06-14T10:34:44;25.00;37.30
76293;DHT22;67256;51.154;4.164;2023-06-14T10:37:12;25.00;36.10
76293;DHT22;67256;51.154;4.164;2023-06-14T10:39:42;25.00;36.00
76293;DHT22;67256;51.154;4.164;2023-06-14T10:42:11;25.00;37.20
76293;DHT22;67256;51.154;4.164;2023-06-14T10:47:30;25.10;36.70
76293;DHT22;67256;51.154;4.164;2023-06-14T10:50:08;25.30;36.00
76293;DHT22;67256;51.154;4.164;2023-06-14T10:52:38;25.40;35.80
76293;DHT22;67256;51.154;4.164;2023-06-14T10:57:35;25.30;36.30
76293;DHT22;67256;51.154;4.164;2023-06-14T11:00:03;25.30;36.10
76293;DHT22;67256;51.154;4.164;2023-06-14T11:05:28;25.40;36.50
76293;DHT22;67256;51.154;4.164;2023-06-14T11:08:16;25.50;33.40
76293;DHT22;67256;51.154;4.164;2023-06-14T11:10:44;25.50;33.40
76293;DHT22;67256;51.154;4.164;2023-06-14T11:13:13;25.50;33.90
76293;DHT22;67256;51.154;4.164;2023-06-14T11:15:45;25.50;32.90
76293;DHT22;67256;51.154;4.164;2023-06-14T11:18:13;25.40;34.60
76293;DHT22;67256;51.154;4.164;2023-06-14T11:20:40;25.40;33.50
76293;DHT22;67256;51.154;4.164;2023-06-14T11:23:06;25.40;32.70
76293;DHT22;67256;51.154;4.164;2023-06-14T11:25:32;25.50;33.80
76293;DHT22;67256;51.154;4.164;2023-06-14T11:27:58;25.50;32.20
76293;DHT22;67256;51.154;4.164;2023-06-14T11:30:25;25.40;33.10
76293;DHT22;67256;51.154;4.164;2023-06-14T11:32:53;25.40;34.30
76293;DHT22;67256;51.154;4.164;2023-06-14T11:35:22;25.50;33.20
76293;DHT22;67256;51.154;4.164;2023-06-14T11:37:48;25.50;34.70
76293;DHT22;67256;51.154;4.164;2023-06-14T11:40:15;25.50;33.60
76293;DHT22;67256;51.154;4.164;2023-06-14T11:42:41;25.50;34.40
76293;DHT22;67256;51.154;4.164;2023-06-14T11:45:08;25.50;33.00
76293;DHT22;67256;51.154;4.164;2023-06-14T11:47:35;25.40;32.40
76293;DHT22;67256;51.154;4.164;2023-06-14T11:50:05;25.40;32.30
76293;DHT22;67256;51.154;4.164;2023-06-14T11:52:32;25.40;33.40
76293;DHT22;67256;51.154;4.164;2023-06-14T11:54:58;25.40;34.50
76293;DHT22;67256;51.154;4.164;2023-06-14T11:57:25;25.60;32.80
76293;DHT22;67256;51.154;4.164;2023-06-14T11:59:51;25.70;32.50
76293;DHT22;67256;51.154;4.164;2023-06-14T12:02:18;25.60;32.30
76293;DHT22;67256;51.154;4.164;2023-06-14T12:04:46;25.60;32.70
76293;DHT22;67256;51.154;4.164;2023-06-14T12:07:14;25.70;32.20
76293;DHT22;67256;51.154;4.164;2023-06-14T12:12:24;25.80;33.10
76293;DHT22;67256;51.154;4.164;2023-06-14T12:14:54;25.80;32.70
76293;DHT22;67256;51.154;4.164;2023-06-14T12:17:22;25.90;32.00
76293;DHT22;67256;51.154;4.164;2023-06-14T12:19:49;25.90;33.70
76293;DHT22;67256;51.154;4.164;2023-06-14T12:22:16;25.90;32.10
76293;DHT22;67256;51.154;4.164;2023-06-14T12:24:46;25.90;32.40
76293;DHT22;67256;51.154;4.164;2023-06-14T12:27:11;25.90;33.30
76293;DHT22;67256;51.154;4.164;2023-06-14T12:29:42;25.90;32.70
76293;DHT22;67256;51.154;4.164;2023-06-14T12:32:11;25.90;33.80
76293;DHT22;67256;51.154;4.164;2023-06-14T12:34:36;25.90;32.10
76293;DHT22;67256;51.154;4.164;2023-06-14T12:37:02;25.90;32.30
76293;DHT22;67256;51.154;4.164;2023-06-14T12:39:31;26.00;31.50
76293;DHT22;67256;51.154;4.164;2023-06-14T12:41:58;26.00;32.30
76293;DHT22;67256;51.154;4.164;2023-06-14T12:44:24;26.00;31.30
76293;DHT22;67256;51.154;4.164;2023-06-14T12:46:50;25.90;31.10
76293;DHT22;67256;51.154;4.164;2023-06-14T12:49:18;25.80;32.40
76293;DHT22;67256;51.154;4.164;2023-06-14T12:51:45;25.70;33.80
76293;DHT22;67256;51.154;4.164;2023-06-14T12:54:11;25.80;32.50
76293;DHT22;67256;51.154;4.164;2023-06-14T12:56:38;25.90;32.80
76293;DHT22;67256;51.154;4.164;2023-06-14T12:59:03;26.00;32.70
76293;DHT22;67256;51.154;4.164;2023-06-14T13:01:29;26.00;31.30
76293;DHT22;67256;51.154;4.164;2023-06-14T13:03:55;26.10;32.20
76293;DHT22;67256;51.154;4.164;2023-06-14T13:06:22;26.00;32.10
76293;DHT22;67256;51.154;4.164;2023-06-14T13:08:48;25.90;31.20
76293;DHT22;67256;51.154;4.164;2023-06-14T13:11:14;26.00;32.60
76293;DHT22;67256;51.154;4.164;2023-06-14T13:13:40;26.00;30.80
76293;DHT22;67256;51.154;4.164;2023-06-14T13:16:06;26.00;31.10
76293;DHT22;67256;51.154;4.164;2023-06-14T13:18:32;25.80;31.10
76293;DHT22;67256;51.154;4.164;2023-06-14T13:20:57;25.80;31.20
76293;DHT22;67256;51.154;4.164;2023-06-14T13:23:23;25.80;30.70
76293;DHT22;67256;51.154;4.164;2023-06-14T13:25:49;26.00;31.30
76293;DHT22;67256;51.154;4.164;2023-06-14T13:28:18;26.10;30.90
76293;DHT22;67256;51.154;4.164;2023-06-14T13:30:44;26.10;30.70
76293;DHT22;67256;51.154;4.164;2023-06-14T13:33:10;26.10;30.50
76293;DHT22;67256;51.154;4.164;2023-06-14T13:35:36;26.10;31.00
76293;DHT22;67256;51.154;4.164;2023-06-14T13:38:02;26.20;30.20
76293;DHT22;67256;51.154;4.164;2023-06-14T13:40:27;26.30;29.70
76293;DHT22;67256;51.154;4.164;2023-06-14T13:42:53;26.30;29.90
76293;DHT22;67256;51.154;4.164;2023-06-14T13:45:19;26.30;29.00
76293;DHT22;67256;51.154;4.164;2023-06-14T13:47:44;26.30;28.60
76293;DHT22;67256;51.154;4.164;2023-06-14T13:50:14;26.20;28.60
76293;DHT22;67256;51.154;4.164;2023-06-14T13:52:39;26.10;28.80
76293;DHT22;67256;51.154;4.164;2023-06-14T13:55:05;26.10;29.10
76293;DHT22;67256;51.154;4.164;2023-06-14T13:57:31;26.10;29.20
76293;DHT22;67256;51.154;4.164;2023-06-14T13:59:58;26.10;28.50
76293;DHT22;67256;51.154;4.164;2023-06-14T14:02:27;26.20;29.20
76293;DHT22;67256;51.154;4.164;2023-06-14T14:04:54;26.30;28.80
76293;DHT22;67256;51.154;4.164;2023-06-14T14:07:20;26.20;29.00
76293;DHT22;67256;51.154;4.164;2023-06-14T14:09:47;26.10;29.60
76293;DHT22;67256;51.154;4.164;2023-06-14T14:12:13;26.00;29.30
76293;DHT22;67256;51.154;4.164;2023-06-14T14:14:40;26.20;29.30
76293;DHT22;67256;51.154;4.164;2023-06-14T14:17:06;26.20;28.30
76293;DHT22;67256;51.154;4.164;2023-06-14T14:19:32;26.20;29.10
76293;DHT22;67256;51.154;4.164;2023-06-14T14:21:58;26.30;29.10
76293;DHT22;67256;51.154;4.164;2023-06-14T14:24:24;26.30;28.70
76293;DHT22;67256;51.154;4.164;2023-06-14T14:26:50;26.30;29.80
76293;DHT22;67256;51.154;4.164;2023-06-14T14:29:19;26.40;29.30
76293;DHT22;67256;51.154;4.164;2023-06-14T14:31:44;26.30;28.80
76293;DHT22;67256;51.154;4.164;2023-06-14T14:34:10;26.40;28.10
76293;DHT22;67256;51.154;4.164;2023-06-14T14:36:36;26.50;28.50
76293;DHT22;67256;51.154;4.164;2023-06-14T14:39:04;26.40;28.00
76293;DHT22;67256;51.154;4.164;2023-06-14T14:41:30;26.40;28.70
76293;DHT22;67256;51.154;4.164;2023-06-14T14:43:55;26.20;28.50
76293;DHT22;67256;51.154;4.164;2023-06-14T14:46:21;26.20;28.60
76293;DHT22;67256;51.154;4.164;2023-06-14T14:48:47;26.20;28.70
76293;DHT22;67256;51.154;4.164;2023-06-14T14:51:13;26.30;28.70
76293;DHT22;67256;51.154;4.164;2023-06-14T14:53:39;26.30;29.50
76293;DHT22;67256;51.154;4.164;2023-06-14T14:56:05;26.20;28.70
76293;DHT22;67256;51.154;4.164;2023-06-14T14:58:31;26.30;28.60
76293;DHT22;67256;51.154;4.164;2023-06-14T15:00:56;26.20;29.00
76293;DHT22;67256;51.154;4.164;2023-06-14T15:03:22;26.30;28.50
76293;DHT22;67256;51.154;4.164;2023-06-14T15:05:48;26.40;28.70
76293;DHT22;67256;51.154;4.164;2023-06-14T15:08:14;26.30;28.70
76293;DHT22;67256;51.154;4.164;2023-06-14T15:10:40;26.30;28.00
76293;DHT22;67256;51.154;4.164;2023-06-14T15:13:07;26.40;28.90
76293;DHT22;67256;51.154;4.164;2023-06-14T15:15:34;26.40;28.60
76293;DHT22;67256;51.154;4.164;2023-06-14T15:17:59;26.60;28.70
76293;DHT22;67256;51.154;4.164;2023-06-14T15:20:26;26.50;28.90
76293;DHT22;67256;51.154;4.164;2023-06-14T15:22:52;26.40;28.70
76293;DHT22;67256;51.154;4.164;2023-06-14T15:25:18;26.40;29.10
76293;DHT22;67256;51.154;4.164;2023-06-14T15:27:45;26.40;29.20
76293;DHT22;67256;51.154;4.164;2023-06-14T15:30:11;26.40;28.80
76293;DHT22;67256;51.154;4.164;2023-06-14T15:32:37;26.40;28.40
76293;DHT22;67256;51.154;4.164;2023-06-14T15:35:03;26.50;28.50
76293;DHT22;67256;51.154;4.164;2023-06-14T15:37:29;26.60;28.40
76293;DHT22;67256;51.154;4.164;2023-06-14T15:39:55;26.60;29.20
76293;DHT22;67256;51.154;4.164;2023-06-14T15:42:21;26.60;28.70
76293;DHT22;67256;51.154;4.164;2023-06-14T15:44:46;26.50;28.70
76293;DHT22;67256;51.154;4.164;2023-06-14T15:47:13;26.50;28.90
76293;DHT22;67256;51.154;4.164;2023-06-14T15:49:39;26.40;29.40